createdAt,value
2019-05-05T14:45:15.300Z,9.51
2019-05-05T14:47:44.295Z,9.48
2019-05-05T14:50:13.455Z,9.72
2019-05-05T14:52:43.989Z,9.73
2019-05-05T14:55:14.020Z,9.76
2019-05-05T14:57:44.083Z,9.73
2019-05-05T15:00:17.126Z,9.48
2019-05-05T15:02:46.145Z,9.46
2019-05-05T15:05:33.817Z,9.34
2019-05-05T15:08:14.825Z,9.63
2019-05-05T15:11:00.650Z,9.65
2019-05-05T15:13:29.418Z,9.63
2019-05-05T15:15:58.245Z,9.63
2019-05-05T15:18:26.989Z,9.59
2019-05-05T15:20:55.845Z,9.67
2019-05-05T15:23:24.705Z,9.88
2019-05-05T15:25:54.075Z,9.93
2019-05-05T15:28:24.529Z,10.01
2019-05-05T15:30:54.510Z,10.09
2019-05-05T15:33:24.369Z,10.05
2019-05-05T15:35:53.956Z,10.12
2019-05-05T15:38:24.409Z,9.94
2019-05-05T15:40:54.718Z,10.06
2019-05-05T15:43:24.364Z,10.02
2019-05-05T15:45:54.167Z,10.12
2019-05-05T15:48:23.327Z,10.17
2019-05-05T15:50:54.483Z,9.78
2019-05-05T15:53:23.491Z,9.86
2019-05-05T15:55:54.009Z,9.58
2019-05-05T15:58:23.611Z,9.80
2019-05-05T16:00:53.816Z,9.87
2019-05-05T16:03:22.919Z,9.76
2019-05-05T16:05:54.122Z,9.90
2019-05-05T16:08:22.810Z,9.95
2019-05-05T16:10:51.911Z,9.90
2019-05-05T16:13:20.984Z,9.90
2019-05-05T16:15:59.332Z,9.79
2019-05-05T16:18:46.261Z,9.88
2019-05-05T16:21:38.054Z,9.55
2019-05-05T16:24:16.320Z,9.77
2019-05-05T16:26:45.205Z,9.81
2019-05-05T16:29:14.832Z,9.53
2019-05-05T16:31:43.877Z,9.60
2019-05-05T16:34:14.239Z,9.46
2019-05-05T16:36:43.992Z,9.38
2019-05-05T16:39:13.847Z,9.43
2019-05-05T16:41:44.043Z,9.61
2019-05-05T16:44:15.563Z,9.71
2019-05-05T16:46:43.970Z,9.75
2019-05-05T16:49:14.041Z,9.76
2019-05-05T16:51:49.040Z,9.70
2019-05-05T16:54:24.801Z,9.63
2019-05-05T16:56:53.797Z,9.69
2019-05-05T16:59:23.730Z,9.86
2019-05-05T17:01:54.114Z,9.94
2019-05-05T17:04:24.334Z,9.75
2019-05-05T17:06:54.671Z,9.58
2019-05-05T17:09:24.208Z,9.45
2019-05-05T17:12:18.439Z,9.48
2019-05-05T17:15:21.572Z,9.69
2019-05-05T17:17:59.307Z,9.62
2019-05-05T17:20:30.143Z,9.49
2019-05-05T17:23:05.014Z,9.12
2019-05-05T17:25:35.354Z,9.03
2019-05-05T17:28:04.623Z,8.82
2019-05-05T17:30:34.180Z,8.82
2019-05-05T17:33:03.784Z,8.77
2019-05-05T17:35:33.725Z,8.65
2019-05-05T17:38:11.291Z,8.80
2019-05-05T17:40:58.193Z,8.80
2019-05-05T17:43:45.253Z,8.88
2019-05-05T17:46:27.978Z,8.90
2019-05-05T17:49:07.698Z,8.65
2019-05-05T17:52:05.365Z,8.71
2019-05-05T17:54:55.799Z,8.66
2019-05-05T17:57:24.666Z,8.60
2019-05-05T17:59:53.885Z,8.61
2019-05-05T18:02:23.700Z,8.60
2019-05-05T18:04:54.113Z,8.57
2019-05-05T18:07:28.229Z,8.64
2019-05-05T18:10:19.205Z,8.64
2019-05-05T18:13:09.875Z,8.46
2019-05-05T18:15:55.918Z,8.33
2019-05-05T18:18:25.055Z,8.42
2019-05-05T18:20:54.312Z,8.37
2019-05-05T18:23:23.485Z,8.25
2019-05-05T18:25:52.347Z,8.20
2019-05-05T18:28:21.239Z,8.22
2019-05-05T18:30:51.270Z,8.22
2019-05-05T18:33:21.824Z,8.17
2019-05-05T18:35:50.992Z,8.09
2019-05-05T18:38:19.771Z,8.09
2019-05-05T18:40:49.491Z,8.14
2019-05-05T18:43:24.468Z,8.11
2019-05-05T18:46:04.635Z,8.07
2019-05-05T18:48:34.561Z,7.84
2019-05-05T18:51:03.962Z,7.85
2019-05-05T18:53:34.135Z,7.85
2019-05-05T18:56:03.746Z,7.79
2019-05-05T18:58:35.106Z,7.90
2019-05-05T19:01:27.971Z,7.75
2019-05-05T19:04:28.320Z,7.75
2019-05-05T19:07:10.394Z,7.89
2019-05-05T19:09:51.136Z,7.82
2019-05-05T19:12:10.328Z,7.77
2019-05-05T19:14:39.199Z,7.79
2019-05-05T19:17:08.062Z,7.73
2019-05-05T19:19:38.418Z,7.71
2019-05-05T19:22:09.761Z,7.68
2019-05-05T19:24:38.494Z,7.61
2019-05-05T19:27:07.236Z,7.51
2019-05-05T19:29:36.038Z,7.50
2019-05-05T19:32:04.920Z,7.51
2019-05-05T19:34:35.394Z,7.57
2019-05-05T19:37:04.196Z,7.57
2019-05-05T19:39:34.463Z,7.47
2019-05-05T19:42:04.804Z,7.42
2019-05-05T19:44:33.895Z,7.62
2019-05-05T19:47:09.844Z,7.30
2019-05-05T19:49:40.221Z,7.22
2019-05-05T19:52:08.980Z,7.26
2019-05-05T19:54:41.043Z,7.28
2019-05-05T19:57:09.743Z,7.29
2019-05-05T19:59:38.544Z,7.19
2019-05-05T20:02:08.192Z,7.13
2019-05-05T20:04:36.935Z,7.11
2019-05-05T20:07:05.756Z,7.08
2019-05-05T20:09:34.483Z,7.08
2019-05-05T20:12:04.014Z,7.07
2019-05-05T20:14:34.210Z,7.06
2019-05-05T20:17:11.495Z,7.05
2019-05-05T20:19:44.096Z,6.99
2019-05-05T20:22:14.584Z,6.88
2019-05-05T20:24:44.406Z,6.88
2019-05-05T20:27:14.089Z,6.92
2019-05-05T20:29:42.897Z,6.88
2019-05-05T20:32:13.935Z,6.79
2019-05-05T20:35:07.931Z,6.78
2019-05-05T20:37:42.050Z,6.80
2019-05-05T20:40:14.572Z,6.58
2019-05-05T20:42:44.752Z,6.73
2019-05-05T20:45:16.319Z,6.68
2019-05-05T20:47:45.057Z,6.62
2019-05-05T20:50:13.946Z,6.73
2019-05-05T20:52:44.231Z,6.69
2019-05-05T20:55:14.103Z,6.54
2019-05-05T20:57:44.296Z,6.43
2019-05-05T21:00:15.709Z,6.42
2019-05-05T21:02:44.524Z,6.39
2019-05-05T21:05:14.599Z,6.32
2019-05-05T21:07:44.379Z,6.34
2019-05-05T21:10:14.433Z,6.27
2019-05-05T21:12:45.552Z,6.14
2019-05-05T21:15:14.437Z,6.12
2019-05-05T21:17:44.963Z,6.15
2019-05-05T21:20:14.543Z,6.10
2019-05-05T21:23:03.672Z,5.94
2019-05-05T21:25:34.709Z,5.99
2019-05-05T21:28:03.910Z,5.91
2019-05-05T21:30:33.739Z,5.73
2019-05-05T21:33:04.375Z,5.78
2019-05-05T21:35:34.888Z,5.72
2019-05-05T21:38:04.699Z,5.62
2019-05-05T21:40:34.637Z,5.73
2019-05-05T21:43:04.930Z,5.67
2019-05-05T21:45:34.723Z,5.58
2019-05-05T21:48:04.455Z,5.50
2019-05-05T21:50:41.659Z,5.38
2019-05-05T21:53:15.802Z,5.56
2019-05-05T21:56:04.215Z,5.59
2019-05-05T21:58:43.813Z,5.55
2019-05-05T22:01:15.489Z,5.59
2019-05-05T22:03:44.527Z,5.70
2019-05-05T22:06:14.642Z,5.74
2019-05-05T22:08:43.656Z,5.66
2019-05-05T22:11:14.116Z,5.63
2019-05-05T22:13:44.238Z,5.66
2019-05-05T22:16:13.719Z,5.69
2019-05-05T22:18:44.705Z,5.47
2019-05-05T22:21:43.571Z,5.37
2019-05-05T22:24:19.146Z,5.33
2019-05-05T22:26:47.876Z,5.35
2019-05-05T22:29:17.334Z,5.31
2019-05-05T22:31:46.226Z,5.35
2019-05-05T22:34:15.008Z,5.28
2019-05-05T22:36:44.906Z,5.21
2019-05-05T22:39:16.443Z,5.23
2019-05-05T22:41:44.725Z,5.09
2019-05-05T22:44:14.067Z,5.00
2019-05-05T22:46:42.878Z,4.98
2019-05-05T22:49:11.716Z,4.91
2019-05-05T22:51:44.673Z,4.94
2019-05-05T22:54:14.898Z,4.82
2019-05-05T22:56:44.807Z,4.79
2019-05-05T22:59:14.028Z,4.82
2019-05-05T23:01:42.914Z,4.73
2019-05-05T23:04:20.148Z,4.74
2019-05-05T23:06:54.217Z,4.69
2019-05-05T23:09:23.000Z,4.81
2019-05-05T23:11:51.697Z,4.61
2019-05-05T23:14:29.833Z,4.66
2019-05-05T23:17:17.872Z,4.74
2019-05-05T23:19:53.872Z,4.69
2019-05-05T23:22:48.098Z,4.67
2019-05-05T23:25:24.186Z,4.56
2019-05-05T23:27:54.742Z,4.56
2019-05-05T23:30:37.661Z,4.55
2019-05-05T23:32:54.943Z,4.38
2019-05-05T23:35:24.143Z,4.34
2019-05-05T23:37:55.059Z,4.45
2019-05-05T23:40:27.290Z,4.31
2019-05-05T23:42:56.067Z,4.32
2019-05-05T23:45:25.202Z,4.31
2019-05-05T23:47:54.580Z,4.35
2019-05-05T23:50:23.692Z,4.32
2019-05-05T23:52:54.518Z,4.27
2019-05-05T23:55:23.941Z,4.21
2019-05-05T23:57:54.693Z,4.05
